Main page
METAR-TAF:

METAR-TAF

Airports :

George Enescu International Airport

Bacau, Romania

latitude: 46-35N, longitude: 026-58E, elevation: 184 m

Current weather observation

The report was made 16 minutes ago, at 20:30 UTC
Wind 3 kt from the North/Northwest
Temperature 3°C
Humidity 87%
Pressure 1027 hPa
Visibility 10 km or more
no clouds below 1500 m and no cumulonimbus

METAR: LRBC 282030Z 34003KT CAVOK 03/01 Q1027

Time: 23:46 (20:46 UTC)

Forecast

The report was made 46 minutes ago, at 20:00 UTC
Forecast valid from 28 at 21 UTC to 29 at 06 UTC
Wind 4 kt from variable directions
Visibility 10 km or more
no clouds below 1500 m and no cumulonimbus
Temporary
from 29 at 01 UTC to 29 at 05 UTC
Visibility: 3000 m
mist

TAF: LRBC 282000Z 2821/2906 VRB04KT CAVOK TEMPO 2901/2905 3000 BR

Weather observations and forecasts of more than 4000 airports (METAR and TAF reports).

The available stations are represented by yellow and red dots on the map.

Hover mouse over dot to see the name of the station.

Then click to see weather observations and forecasts.

To change the map : click on the green buttons with a black cross to zoom in, on the green button with a dash to zoom out, or on the green arrows for adjacent maps.


METAR-TAF: